createdAt,value
2023-04-11T00:04:55.199Z,5.78
2023-04-11T00:10:19.581Z,6.20
2023-04-11T00:15:45.990Z,7.13
2023-04-11T00:21:10.370Z,7.72
2023-04-11T00:26:38.087Z,6.80
2023-04-11T00:32:03.608Z,7.63
2023-04-11T00:37:27.967Z,7.05
2023-04-11T00:42:53.013Z,6.82
2023-04-11T00:48:20.209Z,6.97
2023-04-11T00:53:45.804Z,7.43
2023-04-11T00:59:09.584Z,8.70
2023-04-11T01:04:34.037Z,7.63
2023-04-11T01:09:57.398Z,6.20
2023-04-11T01:15:20.804Z,6.43
2023-04-11T01:20:45.527Z,5.28
2023-04-11T01:26:10.662Z,5.20
2023-04-11T01:31:33.914Z,4.97
2023-04-11T01:36:57.653Z,5.40
2023-04-11T01:42:25.532Z,7.10
2023-04-11T01:47:49.632Z,6.28
2023-04-11T01:53:14.652Z,8.20
2023-04-11T01:58:38.980Z,6.05
2023-04-11T02:04:01.980Z,6.03
2023-04-11T02:09:26.398Z,6.40
2023-04-11T02:14:52.924Z,6.28
2023-04-11T02:20:17.433Z,6.43
2023-04-11T02:25:42.980Z,5.72
2023-04-11T02:31:08.761Z,5.50
2023-04-11T02:36:32.823Z,5.75
2023-04-11T02:41:58.291Z,4.70
2023-04-11T02:47:25.197Z,6.57
2023-04-11T02:52:55.185Z,6.57
2023-04-11T02:58:25.962Z,7.15
2023-04-11T03:03:54.974Z,7.88
2023-04-11T03:09:23.285Z,7.50
2023-04-11T03:14:48.541Z,5.70
2023-04-11T03:20:13.821Z,4.97
2023-04-11T03:25:44.590Z,5.55
2023-04-11T03:31:13.164Z,4.28
2023-04-11T03:36:39.118Z,4.70
2023-04-11T03:42:05.869Z,5.40
2023-04-11T03:47:30.919Z,5.35
2023-04-11T03:52:56.921Z,5.05
2023-04-11T03:58:22.305Z,4.40
2023-04-11T04:03:48.564Z,6.20
2023-04-11T04:09:15.292Z,6.00
2023-04-11T04:14:51.235Z,6.05
2023-04-11T04:20:16.061Z,6.65
2023-04-11T04:25:48.587Z,5.25
2023-04-11T04:31:15.524Z,5.38
2023-04-11T04:36:47.855Z,4.78
2023-04-11T04:42:21.439Z,6.53
2023-04-11T04:47:46.278Z,6.03
2023-04-11T04:53:10.975Z,5.88
2023-04-11T04:58:47.276Z,6.25
2023-04-11T05:04:14.091Z,6.00
2023-04-11T05:09:49.176Z,5.13
2023-04-11T05:15:23.468Z,6.75
2023-04-11T05:20:47.616Z,7.10
2023-04-11T05:26:17.804Z,7.60
2023-04-11T05:31:43.330Z,7.50
2023-04-11T05:37:08.618Z,7.03
2023-04-11T05:42:33.070Z,8.07
2023-04-11T05:47:58.377Z,6.57
2023-04-11T05:53:22.331Z,6.03
2023-04-11T05:58:45.860Z,5.88
2023-04-11T06:04:12.822Z,5.90
2023-04-11T06:09:36.677Z,5.32
2023-04-11T06:15:00.700Z,4.53
2023-04-11T06:20:26.364Z,5.20
2023-04-11T06:25:50.790Z,4.68
2023-04-11T06:31:14.658Z,4.85
2023-04-11T06:36:42.765Z,5.28
2023-04-11T06:42:08.678Z,6.50
2023-04-11T06:47:33.129Z,7.38
2023-04-11T06:52:58.980Z,5.13
2023-04-11T06:58:23.339Z,5.32
2023-04-11T07:03:47.612Z,4.13
2023-04-11T07:09:13.739Z,4.22
2023-04-11T07:14:37.929Z,3.67
2023-04-11T07:20:01.965Z,4.95
2023-04-11T07:25:30.803Z,3.60
2023-04-11T07:30:55.446Z,4.05
2023-04-11T07:36:20.356Z,3.78
2023-04-11T07:41:46.069Z,3.33
2023-04-11T07:47:10.424Z,3.45
2023-04-11T07:52:36.061Z,3.15
2023-04-11T07:58:01.995Z,3.30
2023-04-11T08:03:27.123Z,3.15
2023-04-11T08:08:51.845Z,3.20
2023-04-11T08:14:17.686Z,3.60
2023-04-11T08:19:44.170Z,3.00
2023-04-11T08:25:13.013Z,3.33
2023-04-11T08:30:38.507Z,3.60
2023-04-11T08:36:02.714Z,3.97
2023-04-11T08:41:30.597Z,3.00
2023-04-11T08:46:55.688Z,3.63
2023-04-11T08:52:21.408Z,3.80
2023-04-11T08:57:46.532Z,2.78
2023-04-11T09:03:12.209Z,4.30
2023-04-11T09:08:39.344Z,3.45
2023-04-11T09:14:07.154Z,3.15
2023-04-11T09:19:33.891Z,3.23
2023-04-11T09:25:02.994Z,3.47
2023-04-11T09:30:29.359Z,3.88
2023-04-11T09:35:55.619Z,3.03
2023-04-11T09:41:30.763Z,3.05
2023-04-11T09:47:00.260Z,3.78
2023-04-11T09:52:25.857Z,3.70
2023-04-11T09:57:49.936Z,3.63
2023-04-11T10:03:13.744Z,3.53
2023-04-11T10:08:41.889Z,3.70
2023-04-11T10:14:07.606Z,3.40
2023-04-11T10:19:32.016Z,3.03
2023-04-11T10:25:11.454Z,2.88
2023-04-11T10:30:54.986Z,3.42
2023-04-11T10:36:22.961Z,3.95
2023-04-11T10:41:49.882Z,2.63
2023-04-11T10:47:18.803Z,3.40
2023-04-11T10:52:45.105Z,3.55
2023-04-11T10:58:09.613Z,3.15
2023-04-11T11:03:34.701Z,2.65
2023-04-11T11:09:00.949Z,2.97
2023-04-11T11:14:29.436Z,2.47
2023-04-11T11:19:52.686Z,3.40
2023-04-11T11:25:19.307Z,2.80
2023-04-11T11:30:52.147Z,2.92
2023-04-11T11:36:17.120Z,3.10
2023-04-11T11:41:45.181Z,2.95
2023-04-11T11:47:10.150Z,2.97
2023-04-11T11:52:34.184Z,3.17
2023-04-11T11:58:02.485Z,2.72
2023-04-11T12:03:26.143Z,3.13
2023-04-11T12:08:53.985Z,2.75
2023-04-11T12:14:24.862Z,3.83
2023-04-11T12:19:56.146Z,3.15
2023-04-11T12:25:21.928Z,2.60
2023-04-11T12:30:47.421Z,2.60
2023-04-11T12:36:12.125Z,2.67
2023-04-11T12:41:36.844Z,2.67
2023-04-11T12:47:03.822Z,3.42
2023-04-11T12:52:28.840Z,3.22
2023-04-11T12:57:53.020Z,2.53
2023-04-11T13:03:18.627Z,2.67
2023-04-11T13:08:43.563Z,5.13
2023-04-11T13:14:07.583Z,3.70
2023-04-11T13:19:32.904Z,3.72
2023-04-11T13:24:57.748Z,4.15
2023-04-11T13:30:21.766Z,2.63
2023-04-11T13:35:48.561Z,3.05
2023-04-11T13:41:14.695Z,4.30
2023-04-11T13:46:38.735Z,3.35
2023-04-11T13:52:04.509Z,3.50
2023-04-11T13:57:29.396Z,3.47
2023-04-11T14:02:53.933Z,2.85
2023-04-11T14:08:19.444Z,2.75
2023-04-11T14:13:44.592Z,3.40
2023-04-11T14:19:09.406Z,4.47
2023-04-11T14:24:35.638Z,3.50
2023-04-11T14:29:59.034Z,3.22
2023-04-11T14:35:26.298Z,3.38
2023-04-11T14:40:51.677Z,3.22
2023-04-11T14:46:16.204Z,3.08
2023-04-11T14:51:42.595Z,3.35
2023-04-11T14:57:09.714Z,2.95
2023-04-11T15:02:36.959Z,3.25
2023-04-11T15:08:02.218Z,2.85
2023-04-11T15:13:28.299Z,3.35
2023-04-11T15:18:52.437Z,2.97
2023-04-11T15:24:17.093Z,3.80
2023-04-11T15:29:43.807Z,3.20
2023-04-11T15:35:09.325Z,3.17
2023-04-11T15:40:33.192Z,3.40
2023-04-11T15:45:59.226Z,3.03
2023-04-11T15:51:23.274Z,3.65
2023-04-11T15:56:47.090Z,2.92
2023-04-11T16:02:12.030Z,4.85
2023-04-11T16:07:36.088Z,4.05
2023-04-11T16:12:59.861Z,4.15
2023-04-11T16:18:26.072Z,3.65
2023-04-11T16:23:49.801Z,3.40
2023-04-11T16:29:13.716Z,3.88
2023-04-11T16:34:39.398Z,3.75
2023-04-11T16:40:06.992Z,3.38
2023-04-11T16:45:30.736Z,3.40
2023-04-11T16:50:56.830Z,5.18
2023-04-11T16:56:20.524Z,3.67
2023-04-11T17:01:45.410Z,4.95
2023-04-11T17:07:11.063Z,4.45
2023-04-11T17:12:34.643Z,4.63
2023-04-11T17:17:58.183Z,3.60
2023-04-11T17:23:35.078Z,3.25
2023-04-11T17:29:06.566Z,4.13
2023-04-11T17:34:30.576Z,3.70
2023-04-11T17:39:58.600Z,3.33
2023-04-11T17:45:23.103Z,3.33
2023-04-11T17:50:47.834Z,4.05
2023-04-11T17:56:12.700Z,3.38
2023-04-11T18:01:36.019Z,3.72
2023-04-11T18:06:59.885Z,3.75
2023-04-11T18:12:29.610Z,5.05
2023-04-11T18:17:55.267Z,4.40
2023-04-11T18:23:20.788Z,4.57
2023-04-11T18:28:45.947Z,5.88
2023-04-11T18:34:09.734Z,4.70
2023-04-11T18:39:33.888Z,4.15
2023-04-11T18:45:00.263Z,4.30
2023-04-11T18:50:23.987Z,3.85
2023-04-11T18:55:48.358Z,5.32
2023-04-11T19:01:16.426Z,4.47
2023-04-11T19:06:42.672Z,4.82
2023-04-11T19:12:07.669Z,4.45
2023-04-11T19:17:33.496Z,5.07
2023-04-11T19:22:58.375Z,4.53
2023-04-11T19:28:22.386Z,4.18
2023-04-11T19:33:48.265Z,4.40
2023-04-11T19:39:12.622Z,3.75
2023-04-11T19:44:36.649Z,3.70
2023-04-11T19:50:02.512Z,3.30
2023-04-11T19:55:27.387Z,3.20
2023-04-11T20:00:53.077Z,2.85
2023-04-11T20:06:18.734Z,3.13
2023-04-11T20:11:43.711Z,3.53
2023-04-11T20:17:08.596Z,3.40
2023-04-11T20:22:34.573Z,3.08
2023-04-11T20:28:04.091Z,3.78
2023-04-11T20:33:29.628Z,3.10
2023-04-11T20:38:55.602Z,3.10
2023-04-11T20:44:21.277Z,3.67
2023-04-11T20:49:45.694Z,3.50
2023-04-11T20:55:11.206Z,3.50
2023-04-11T21:00:34.746Z,2.88
2023-04-11T21:05:59.650Z,3.90
2023-04-11T21:11:26.149Z,4.03
2023-04-11T21:22:17.553Z,4.85
2023-04-11T21:27:43.007Z,4.88
2023-04-11T21:33:06.749Z,4.95
2023-04-11T21:38:30.359Z,4.57
2023-04-11T21:43:55.748Z,4.50
2023-04-11T21:49:21.201Z,4.90
2023-04-11T21:54:45.448Z,5.15
2023-04-11T22:00:11.878Z,5.45
2023-04-11T22:05:41.849Z,5.30
2023-04-11T22:11:10.111Z,5.32
2023-04-11T22:16:36.010Z,5.63
2023-04-11T22:22:03.495Z,5.22
2023-04-11T22:27:27.619Z,5.68
2023-04-11T22:32:55.618Z,5.95
2023-04-11T22:38:24.202Z,6.25
2023-04-11T22:43:53.564Z,6.88
2023-04-11T22:49:21.064Z,6.80
2023-04-11T22:54:44.658Z,6.85
2023-04-11T23:00:12.190Z,6.38
2023-04-11T23:05:39.557Z,6.80
2023-04-11T23:11:03.265Z,5.78
2023-04-11T23:16:27.341Z,6.05
2023-04-11T23:21:53.356Z,6.05
2023-04-11T23:27:17.918Z,5.05
2023-04-11T23:32:42.939Z,5.45
2023-04-11T23:38:11.682Z,5.50
2023-04-11T23:43:36.054Z,6.13
2023-04-11T23:49:00.106Z,5.38
2023-04-11T23:54:30.012Z,5.13
2023-04-11T23:59:55.286Z,5.32
